CYDF/YDF METAR and TAF weather

Enter ICAO airport designator
Station Type Date Time Source
CYDF METAR 2019/12/11 15:11 UTC NOAA

CYDF 111511Z 24010G18KT 10SM -SN SCT026 BKN048 OVC090 M01/M05 A2985 RMK SC4SC3AC1 SLP112


Station Type Date Time Source
CYDF Decoded METAR 2019/12/11 15:11 UTC NOAA

Deer Lake, Nfld., Canada (CYDF) 49-13N 057-24W 22M
Dec 11, 2019 - 10:11 AM EST / 2019.12.11 1511 UTC
Wind: from the WSW (240 degrees) at 12 MPH (10 KT) gusting to 21 MPH (18 KT):0
Visibility: 10 mile(s):0
Sky conditions: overcast
Weather: light snow
Temperature: 30 F (-1 C)
Windchill: 19 F (-7 C):1
Dew Point: 23 F (-5 C)
Relative Humidity: 74%
Pressure (altimeter): 29.85 in. Hg (1010 hPa)
ob: CYDF 111511Z 24010G18KT 10SM -SN SCT026 BKN048 OVC090 M01/M05 A2985 RMK SC4SC3AC1 SLP112
cycle: 15

Station Type Date Time Source
CYDF TAF 2019/12/11 14:39 UTC NOAA

TAF CYDF 111338Z 1114/1202 25012G22KT P6SM SCT020 BKN100
TEMPO 1114/1118 BKN020
FM112000 27012G22KT P6SM BKN150
FM120000 27010G20KT P6SM BKN030
RMK NXT FCST BY 112000Z

Example: see airport list